Georgetown, Florida
Current Conditions -  °F | °C
As of 2:15 AM on Saturday 25 Oct 2014 (Local Time) from KXFL Reporting Station
Clear Clear  
Wind Chill: 61°   Ceiling: Unl
Heat Index: 61°   Visibility: NA
Dew Point: 54°   Wind: 6mph
Humidity: 79%   Direction: 330°NNW
Pressure: 29.97"   Gusts: NA
Location:  29.39°N, 81.64°W
Report Text: KXFL 250615Z AUTO 33005KT CLR 16/12 A2997 RMK AO2 T01600123 PWINO
Loading
Personal Weather Stations






























Interactive Weather Map
Tropical Storm Tracking
New forecast layout! Learn more

10-Day Weather Forecast

Advertisements
Track Severe Weather on mobile